Meteo Giornale » Osservazioni meteo Italia » Firenze-Peretola

ore: 17:50 - Osservazioni Meteo Firenze-Peretola
Lat. 43° 48' N Lon. 11° 12' E Alt. 40 metri s.l.m.

nuvoloso Europe/Rome

9 °C

Nuvoloso

Temp. 24 Ore

7 °C

13 °C

Nord

1.8 Km/h

Dew point 4 °C

Umidità 70 %

Visibilità  10 Km

Il sole sorge alle ore 07:39

Il sole tramonta alle ore 16:39

Data e Ora Cielo e Fenomeni T °C DP °C Um. % Pres. hPa Vis. km Vento km/h
Oggi h: 17:50 nuvoloso Nuvoloso 9 4 70 1017 10 N 1.8
Oggi h: 17:20 nuvoloso Nuvoloso 10 4 66 1017 10 S/SO 9.3
Oggi h: 16:50 nuvoloso Nuvoloso 10 3 61 1017 10 S 9.3
Oggi h: 16:20 poco_nuvoloso Poco Nuvoloso 11 3 57 1017 10 SO 9.3
Oggi h: 15:50 nuvoloso Nuvoloso 12 3 54 1017 10 SO 14.8
Oggi h: 15:20 nuvoloso Nuvoloso 12 4 57 1017 10 N 11.1
Oggi h: 14:50 nuvoloso Nuvoloso 12 7 71 1016 10 N 5.5
Oggi h: 14:20 molto_nuvoloso Molto Nuvoloso 12 5 62 1017 10 S/SO 18.5
Oggi h: 13:50 nuvoloso Nuvoloso 13 7 66 1017 10 S/SO 11.1
Oggi h: 13:20 molto_nuvoloso Molto Nuvoloso 13 7 66 1017 10 S/SO 9.3
Oggi h: 12:20 nuvoloso Nuvoloso 13 7 66 1017 10 SO 9.3
Oggi h: 11:50 poco_nuvoloso Poco Nuvoloso 13 7 66 1017 10 N 5.5
Oggi h: 11:20 poco_nuvoloso Poco Nuvoloso 12 8 76 1018 10 SE 7.4
Oggi h: 10:50 poco_nuvoloso Poco Nuvoloso 11 8 81 1018 10 E 9.3
Oggi h: 10:20 poco_nuvoloso Poco Nuvoloso 10 9 93 1018 10 N 5.5
Oggi h: 09:50 nuvoloso Nuvoloso 9 8 93 1018 10 N 3.7
Oggi h: 09:20 nuvoloso Nuvoloso 8 8 100 1018 10 N 1.8
Oggi h: 08:50 molto_nuvoloso Molto Nuvoloso 8 7 93 1018 10 N 3.7
Oggi h: 08:20 nuvoloso Nuvoloso 7 7 100 1018 10 N 3.7
Oggi h: 07:50 molto_nuvoloso Molto Nuvoloso 8 7 93 1017 10 N 3.7
Oggi h: 07:20 nuvoloso Nuvoloso 7 6 93 1017 10 E/SE 9.3
Oggi h: 06:50 nuvoloso Nuvoloso 7 6 93 1017 10 E 7.4
Oggi h: 06:20 nuvoloso Nuvoloso 8 7 93 1017 10 E 7.4
Oggi h: 05:50 nuvoloso Nuvoloso 8 7 93 1017 10 N 5.5
Oggi h: 05:20 nuvoloso Nuvoloso 8 7 93 1016 10 E 9.3
Oggi h: 04:50 nuvoloso Nuvoloso 8 8 100 1016 10 E 7.4
Oggi h: 04:20 nuvoloso Nuvoloso 8 8 100 1016 10 E/NE 9.3
Oggi h: 03:50 nuvoloso Nuvoloso 9 8 93 1017 10 N 3.7
Oggi h: 03:20 coperto_pioggia Pioggia Debole 9 9 100 1017 10 N 5.5
Oggi h: 02:50 molto_nuvoloso Molto Nuvoloso 9 8 93 1016 10 N 5.5
Oggi h: 02:20 coperto_pioggia Pioggia Debole 9 8 93 1016 10 S/SO 7.4
Oggi h: 01:50 nuvoloso Nuvoloso 9 8 93 1015 10 N 5.5
Oggi h: 01:20 nuvoloso Nuvoloso 9 8 93 1015 10 N 5.5
Oggi h: 00:50 nuvoloso Nuvoloso 9 8 93 1016 10 E 7.4
Oggi h: 00:20 coperto_pioggia Pioggia Debole 10 8 87 1016 10 N 5.5
Ieri h: 23:50 nuvoloso Nuvoloso 9 8 93 1015 10 E/SE 9.3
Ieri h: 23:20 nuvoloso Nuvoloso 10 8 87 1015 10 N 5.5
Ieri h: 22:50 nuvoloso Nuvoloso 10 8 87 1015 10 E/SE 7.4
Ieri h: 22:20 molto_nuvoloso Molto Nuvoloso 10 8 87 1015 10 E 9.3
Ieri h: 21:50 molto_nuvoloso Molto Nuvoloso 10 8 87 1015 10 E/SE 9.3
Ieri h: 21:20 molto_nuvoloso Molto Nuvoloso 10 8 87 1015 10 E 7.4
Ieri h: 20:50 molto_nuvoloso Molto Nuvoloso 10 8 87 1015 10 E 9.3
Ieri h: 20:20 nuvoloso Nuvoloso 9 8 93 1014 10 E 9.3
Ieri h: 19:50 nuvoloso Nuvoloso 10 8 87 1014 10 E 9.3
Ieri h: 19:20 molto_nuvoloso Molto Nuvoloso 10 8 87 1014 10 E 9.3
Ieri h: 18:50 poco_nuvoloso Poco Nuvoloso 10 8 87 1014 10 E 11.1
Ieri h: 18:20 molto_nuvoloso Molto Nuvoloso 10 8 87 1013 10 E/SE 9.3
Ieri h: 17:50 molto_nuvoloso Molto Nuvoloso 10 8 87 1013 10 E 9.3